Time;durP1;ratioP1;P1;durP2;ratioP2;P2;SDS_P1;SDS_P2;PMS_P1;PMS_P2;Temp;Humidity;BMP_temperature;BMP_pressure;BME280_temperature;BME280_humidity;BME280_pressure;Samples;Min_cycle;Max_cycle;Signal;HPM_P1;HPM_P2
2023/01/15 00:03:14;;;;;;;;;;;8.40;99.90;;;7.06;100.00;94828.63;10425939;28;3330;-73
2023/01/15 00:08:17;;;;;;;;;;;8.30;99.90;;;6.92;100.00;94809.72;10421596;28;3345;-73
2023/01/15 00:13:20;;;;;;;;;;;8.10;99.90;;;6.74;100.00;94797.81;10419005;28;3456;-73
2023/01/15 00:18:22;;;;;;;;;;;8.00;99.90;;;6.75;100.00;94782.56;10419264;28;2295;-74
2023/01/15 00:28:42;;;;;;;;;;;8.00;99.90;;;6.93;100.00;94778.47;10414453;28;3342;-73
2023/01/15 00:33:45;;;;;;;;;;;7.90;99.90;;;6.98;100.00;94781.91;10425948;28;3325;-74
2023/01/15 00:38:47;;;;;;;;;;;8.00;99.90;;;7.02;100.00;94772.28;10424476;28;2335;-74
2023/01/15 00:43:51;;;;;;;;;;;8.00;99.90;;;6.96;100.00;94762.69;10421933;28;2312;-73
2023/01/15 00:48:55;;;;;;;;;;;8.00;99.90;;;6.88;100.00;94765.97;10423634;28;2370;-73
2023/01/15 00:53:57;;;;;;;;;;;8.00;99.90;;;6.72;100.00;94751.84;10427987;28;3341;-73
2023/01/15 00:59:00;;;;;;;;;;;7.80;99.90;;;6.55;100.00;94766.59;10428791;28;3421;-73
2023/01/15 01:04:02;;;;;;;;;;;8.00;99.90;;;6.41;100.00;94753.84;10414716;28;3494;-72
2023/01/15 01:09:06;;;;;;;;;;;7.60;99.90;;;6.44;100.00;94757.84;10425057;28;2345;-73
2023/01/15 01:14:08;;;;;;;;;;;7.40;99.90;;;6.47;100.00;94754.63;10424875;28;3291;-74
2023/01/15 01:19:11;;;;;;;;;;;7.50;99.90;;;6.42;100.00;94742.09;10422070;28;2333;-72
2023/01/15 01:24:14;;;;;;;;;;;7.50;99.90;;;6.50;100.00;94749.56;10423011;28;3270;-73
2023/01/15 01:29:16;;;;;;;;;;;7.50;99.90;;;6.64;100.00;94733.75;10428794;28;3212;-73
2023/01/15 01:34:19;;;;;;;;;;;7.60;99.90;;;6.56;100.00;94725.50;10430229;28;3342;-74
2023/01/15 01:39:22;;;;;;;;;;;7.60;99.90;;;6.41;100.00;94719.13;10433243;28;3259;-73
2023/01/15 01:44:25;;;;;;;;;;;7.60;99.90;;;6.29;100.00;94702.63;10419520;28;3306;-72
2023/01/15 01:49:28;;;;;;;;;;;7.40;99.90;;;6.22;100.00;94688.78;10429791;28;3384;-73
2023/01/15 01:54:30;;;;;;;;;;;7.30;99.90;;;6.02;100.00;94680.84;10459194;28;2328;-72
2023/01/15 01:59:33;;;;;;;;;;;7.20;99.90;;;5.87;100.00;94666.47;10426720;28;2276;-72
2023/01/15 02:04:38;;;;;;;;;;;;;;;5.80;100.00;94647.28;10426973;28;2319;-72
2023/01/15 02:09:42;;;;;;;;;;;;;;;5.92;100.00;94642.47;10421558;28;3419;-72
2023/01/15 02:14:45;;;;;;;;;;;;;;;6.00;100.00;94637.66;10421240;28;3322;-72
2023/01/15 02:19:48;;;;;;;;;;;;;;;6.08;100.00;94640.53;10418979;28;3330;-73
2023/01/15 02:24:51;;;;;;;;;;;;;;;6.19;100.00;94619.97;10423893;28;2316;-73
2023/01/15 02:29:54;;;;;;;;;;;;;;;6.35;100.00;94612.66;10416500;28;2343;-74
2023/01/15 02:34:58;;;;;;;;;;;;;;;6.35;100.00;94618.78;10428698;28;2348;-73
2023/01/15 02:40:02;;;;;;;;;;;7.20;99.90;;;6.39;100.00;94619.06;10420960;28;2316;-73
2023/01/15 02:45:04;;;;;;;;;;;7.40;99.90;;;6.41;100.00;94598.22;10424041;28;3505;-73
2023/01/15 02:50:07;;;;;;;;;;;7.40;99.90;;;6.47;100.00;94605.91;10421094;28;3382;-72
2023/01/15 02:55:10;;;;;;;;;;;7.40;99.90;;;6.56;100.00;94598.16;10421740;28;2271;-72
2023/01/15 03:00:13;;;;;;;;;;;7.50;99.90;;;6.60;100.00;94593.81;10417625;28;2400;-72
2023/01/15 03:05:16;;;;;;;;;;;7.50;99.90;;;6.66;100.00;94586.59;10431167;28;3334;-71
2023/01/15 03:10:18;;;;;;;;;;;7.60;99.90;;;6.68;100.00;94579.09;10425123;28;3252;-74
2023/01/15 03:16:33;;;;;;;;;;;8.40;99.90;;;6.75;100.00;94571.59;10429637;28;3337;-71
2023/01/15 03:20:44;;;;;;;;;;;7.70;99.90;;;6.79;100.00;94551.22;10428327;28;3388;-72
2023/01/15 03:25:47;;;;;;;;;;;7.70;99.90;;;6.68;100.00;94557.72;10426092;28;3322;-72
2023/01/15 03:30:49;;;;;;;;;;;7.80;99.90;;;6.50;100.00;94562.66;10423920;28;3321;-75
2023/01/15 03:35:54;;;;;;;;;;;7.60;99.90;;;6.38;100.00;94543.53;10425781;28;3298;-74
2023/01/15 03:40:57;;;;;;;;;;;7.50;99.90;;;6.28;100.00;94532.91;10424517;28;3334;-74
2023/01/15 03:46:00;;;;;;;;;;;7.60;99.90;;;6.34;100.00;94536.34;10427489;28;3302;-74
2023/01/15 03:51:02;;;;;;;;;;;7.40;99.90;;;6.43;100.00;94542.72;10419174;28;2317;-72
2023/01/15 03:56:05;;;;;;;;;;;7.40;99.90;;;6.52;100.00;94537.56;10412469;28;3291;-75
2023/01/15 04:01:08;;;;;;;;;;;7.50;99.90;;;6.57;100.00;94519.63;10426608;28;2338;-73
2023/01/15 04:06:11;;;;;;;;;;;7.50;99.90;;;6.58;100.00;94520.44;10418957;28;3267;-73
2023/01/15 04:11:13;;;;;;;;;;;7.70;99.90;;;6.65;100.00;94504.88;10429901;28;3410;-73
2023/01/15 04:16:16;;;;;;;;;;;7.70;99.90;;;6.65;100.00;94513.69;10424638;28;3349;-73
2023/01/15 04:21:19;;;;;;;;;;;7.60;99.90;;;6.85;100.00;94512.72;10423694;28;2283;-72
2023/01/15 04:26:22;;;;;;;;;;;7.70;99.90;;;6.83;100.00;94508.75;10428838;28;2381;-73
2023/01/15 04:31:25;;;;;;;;;;;7.80;99.90;;;6.90;100.00;94504.66;10427685;28;2323;-73
2023/01/15 04:36:29;;;;;;;;;;;8.00;99.90;;;6.89;100.00;94486.25;10414826;28;2327;-73
2023/01/15 04:46:52;;;;;;;;;;;7.90;99.90;;;7.07;100.00;94474.06;10417660;28;2284;-73
2023/01/15 04:51:55;;;;;;;;;;;8.00;99.90;;;6.97;100.00;94465.06;10410385;28;3303;-72
2023/01/15 04:56:58;;;;;;;;;;;8.00;99.90;;;6.99;100.00;94457.56;10416930;28;3279;-73
2023/01/15 05:02:00;;;;;;;;;;;8.00;99.90;;;7.02;100.00;94467.69;10427054;28;3473;-72
2023/01/15 05:07:08;;;;;;;;;;;8.00;99.90;;;7.05;100.00;94472.44;10427095;28;3337;-72
2023/01/15 05:12:10;;;;;;;;;;;8.00;99.90;;;7.01;100.00;94471.44;10435769;28;3266;-72
2023/01/15 05:17:13;;;;;;;;;;;8.00;99.90;;;7.03;100.00;94465.81;10429031;28;3318;-74
2023/01/15 05:22:16;;;;;;;;;;;8.00;99.90;;;7.07;100.00;94469.53;10432651;28;3317;-75
2023/01/15 05:27:19;;;;;;;;;;;8.00;99.90;;;7.20;100.00;94478.75;10419847;28;3370;-74
2023/01/15 05:32:21;;;;;;;;;;;8.10;99.90;;;7.23;100.00;94459.44;10426148;28;3318;-73
2023/01/15 05:37:24;;;;;;;;;;;8.20;99.90;;;7.26;100.00;94474.94;10424589;28;3345;-73
2023/01/15 05:42:27;;;;;;;;;;;8.20;99.90;;;7.32;100.00;94452.41;10424940;28;3341;-73
2023/01/15 05:47:29;;;;;;;;;;;8.20;99.90;;;7.51;100.00;94453.25;10427080;28;3287;-71
2023/01/15 05:52:32;;;;;;;;;;;8.40;99.90;;;7.83;100.00;94457.13;10433875;28;3323;-72
2023/01/15 05:57:35;;;;;;;;;;;8.60;99.90;;;8.24;100.00;94454.66;10417919;28;3337;-72
2023/01/15 06:02:37;;;;;;;;;;;8.90;99.90;;;8.65;100.00;94444.16;10431472;28;3311;-71
2023/01/15 06:07:40;;;;;;;;;;;9.50;99.90;;;8.94;100.00;94446.59;10427905;28;3377;-74
2023/01/15 06:12:43;;;;;;;;;;;9.70;99.90;;;9.23;100.00;94445.53;10434479;28;3283;-73
2023/01/15 06:17:45;;;;;;;;;;;9.90;99.90;;;9.39;100.00;94438.00;10428642;28;3363;-73
2023/01/15 06:22:48;;;;;;;;;;;10.20;99.90;;;9.56;100.00;94445.44;10437783;28;3390;-71
2023/01/15 06:27:51;;;;;;;;;;;10.40;99.90;;;9.70;100.00;94447.00;10430185;28;3392;-74
2023/01/15 06:32:54;;;;;;;;;;;10.50;99.90;;;9.86;100.00;94454.72;10425693;28;3425;-74
2023/01/15 06:37:56;;;;;;;;;;;10.70;99.90;;;9.80;100.00;94458.63;10450341;28;3291;-73
2023/01/15 06:48:19;;;;;;;;;;;10.80;99.90;;;9.99;100.00;94446.69;10427375;28;3279;-73
2023/01/15 06:53:22;;;;;;;;;;;11.00;99.90;;;10.20;100.00;94451.59;10426878;28;3275;-72
2023/01/15 06:58:25;;;;;;;;;;;11.10;99.90;;;10.25;100.00;94435.41;10427987;28;2347;-74
2023/01/15 07:03:28;;;;;;;;;;;11.20;99.90;;;10.16;100.00;94448.69;10423191;28;3314;-74
2023/01/15 07:08:31;;;;;;;;;;;11.20;99.90;;;10.21;100.00;94455.84;10421366;28;2491;-77
2023/01/15 07:13:33;;;;;;;;;;;11.20;99.90;;;10.34;100.00;94443.50;10429660;28;3287;-76
2023/01/15 07:18:36;;;;;;;;;;;11.30;99.90;;;10.44;100.00;94437.91;10421229;28;3282;-78
2023/01/15 07:23:39;;;;;;;;;;;11.40;99.90;;;10.57;100.00;94426.31;10428545;28;3366;-73
2023/01/15 07:28:42;;;;;;;;;;;11.50;99.90;;;10.57;100.00;94426.31;10423955;28;3377;-72
2023/01/15 07:33:44;;;;;;;;;;;11.50;99.90;;;10.50;100.00;94440.19;10418762;28;3399;-73
2023/01/15 07:38:47;;;;;;;;;;;11.50;99.90;;;10.51;100.00;94449.81;10418027;28;3381;-73
2023/01/15 07:54:30;;;;;;;;;;;11.50;99.90;;;10.47;100.00;94466.84;10417767;28;2295;-73
2023/01/15 07:59:33;;;;;;;;;;;11.50;99.90;;;10.57;100.00;94442.44;10424891;28;3311;-74
2023/01/15 08:04:36;;;;;;;;;;;11.50;99.90;;;10.64;100.00;94458.91;10422568;28;3327;-75
2023/01/15 08:09:38;;;;;;;;;;;11.60;99.90;;;10.65;100.00;94460.50;10418077;28;3361;-75
2023/01/15 08:20:02;;;;;;;;;;;11.60;99.90;;;10.61;100.00;94438.03;10416254;28;3505;-73
2023/01/15 08:25:05;;;;;;;;;;;11.60;99.90;;;10.72;100.00;94444.75;10415630;28;3287;-73
2023/01/15 08:30:07;;;;;;;;;;;11.60;99.90;;;10.79;100.00;94441.63;10429539;28;3292;-73
2023/01/15 08:35:11;;;;;;;;;;;11.70;99.90;;;10.87;100.00;94446.25;10421481;28;3330;-74
2023/01/15 08:40:14;;;;;;;;;;;11.80;99.90;;;10.89;100.00;94432.53;10425135;28;3552;-74
2023/01/15 08:45:17;;;;;;;;;;;11.80;99.90;;;10.98;100.00;94436.81;10429294;28;3263;-75
2023/01/15 08:50:20;;;;;;;;;;;11.80;99.90;;;11.09;100.00;94407.78;10423488;28;3324;-77
2023/01/15 08:55:23;;;;;;;;;;;11.90;99.90;;;11.22;100.00;94414.97;10422612;28;2311;-73
2023/01/15 09:00:26;;;;;;;;;;;12.00;99.90;;;11.38;100.00;94408.03;10425684;28;2335;-73
2023/01/15 09:05:28;;;;;;;;;;;12.20;99.90;;;11.49;100.00;94383.56;10420388;28;2323;-72
2023/01/15 09:10:31;;;;;;;;;;;12.30;99.90;;;11.57;100.00;94369.31;10428387;28;3274;-73
2023/01/15 09:15:34;;;;;;;;;;;12.40;99.90;;;11.69;100.00;94372.19;10433225;28;3493;-73
2023/01/15 09:20:36;;;;;;;;;;;12.50;99.90;;;11.73;100.00;94362.38;10430751;28;2323;-73
2023/01/15 09:25:40;;;;;;;;;;;12.60;99.90;;;11.90;100.00;94356.28;10429916;28;3348;-72
2023/01/15 09:30:42;;;;;;;;;;;12.70;99.90;;;12.14;100.00;94342.31;10417745;28;3414;-73
2023/01/15 09:35:45;;;;;;;;;;;13.00;99.90;;;12.23;100.00;94332.34;10419413;28;3330;-72
2023/01/15 09:40:48;;;;;;;;;;;13.10;99.90;;;12.41;100.00;94330.41;10424957;28;3349;-72
2023/01/15 09:45:51;;;;;;;;;;;13.30;99.90;;;12.51;100.00;94330.06;10425848;28;3397;-73
2023/01/15 09:50:54;;;;;;;;;;;13.40;99.90;;;12.65;96.59;94335.25;10419411;28;2351;-75
2023/01/15 09:55:56;;;;;;;;;;;13.50;99.90;;;12.72;95.74;94330.16;10422253;28;2058;-75
2023/01/15 10:00:59;;;;;;;;;;;13.60;99.90;;;12.72;95.32;94376.00;10428530;28;2299;-75
2023/01/15 10:06:02;;;;;;;;;;;13.60;99.90;;;12.40;100.00;94432.00;10426399;28;2443;-73
2023/01/15 10:11:05;;;;;;;;;;;13.10;99.90;;;10.52;100.00;94466.72;10425940;28;2028;-73
2023/01/15 10:16:07;;;;;;;;;;;11.10;99.90;;;8.58;100.00;94539.34;10418939;28;2040;-74
2023/01/15 10:21:11;;;;;;;;;;;;;;;7.75;100.00;94570.09;10407314;28;2220;-76
2023/01/15 10:26:16;;;;;;;;;;;;;;;7.12;100.00;94612.94;10381540;28;1140980;-73
2023/01/15 10:31:19;;;;;;;;;;;;;;;6.93;100.00;94626.97;10419422;28;2037;-73
2023/01/15 10:36:23;;;;;;;;;;;;;;;6.82;100.00;94664.75;10411707;28;2242;-74
2023/01/15 10:41:44;;;;;;;;;;;;;;;6.43;100.00;94668.97;10417369;28;2037;-76
2023/01/15 10:46:48;;;;;;;;;;;;;;;6.22;100.00;94667.44;10424336;28;2104;-74
2023/01/15 10:51:52;;;;;;;;;;;;;;;6.17;100.00;94664.78;10415595;28;2052;-78
2023/01/15 10:57:00;;;;;;;;;;;;;;;5.95;100.00;94644.59;10411949;28;2250;-78
2023/01/15 11:02:03;;;;;;;;;;;;;;;5.86;100.00;94674.75;10441939;28;2056;-75
2023/01/15 11:07:07;;;;;;;;;;;;;;;5.60;100.00;94669.44;10418590;28;2095;-78
2023/01/15 11:22:51;;;;;;;;;;;;;;;5.52;100.00;94666.50;10426733;28;2048;-78
2023/01/15 11:27:54;;;;;;;;;;;;;;;5.46;100.00;94664.91;10431973;28;2027;-76
2023/01/15 11:32:57;;;;;;;;;;;;;;;5.89;100.00;94666.19;10426469;28;2549;-76
2023/01/15 11:38:00;;;;;;;;;;;;;;;5.56;100.00;94687.03;10435103;28;2049;-76
2023/01/15 11:53:46;;;;;;;;;;;;;;;4.75;100.00;94756.22;10428732;28;2138;-76
2023/01/15 11:58:50;;;;;;;;;;;;;;;4.68;100.00;94782.28;10427160;28;2208;-75
2023/01/15 12:03:53;;;;;;;;;;;;;;;4.59;100.00;94789.97;10439975;28;2167;-77
2023/01/15 12:08:56;;;;;;;;;;;;;;;4.48;100.00;94809.59;10427427;28;2093;-77
2023/01/15 12:14:00;;;;;;;;;;;;;;;4.58;100.00;94829.09;10423536;28;2024;-76
2023/01/15 12:19:03;;;;;;;;;;;;;;;4.53;100.00;94836.25;10425033;28;2064;-74
2023/01/15 12:24:06;;;;;;;;;;;;;;;4.50;100.00;94853.53;10427855;28;1985;-74
2023/01/15 12:29:10;;;;;;;;;;;;;;;4.47;100.00;94863.91;10423577;28;2034;-74
2023/01/15 12:34:13;;;;;;;;;;;;;;;4.44;100.00;94861.72;10413679;28;1993;-72
2023/01/15 12:39:16;;;;;;;;;;;;;;;4.27;100.00;94861.91;10421208;28;2089;-73
2023/01/15 12:49:40;;;;;;;;;;;;;;;4.44;100.00;94883.03;10444478;28;2129;-72
2023/01/15 12:54:43;;;;;;;;;;;;;;;4.56;100.00;94880.97;10429602;28;2278;-73
2023/01/15 12:59:47;;;;;;;;;;;;;;;4.61;100.00;94886.34;10417709;28;2255;-73
2023/01/15 13:04:50;;;;;;;;;;;;;;;4.57;100.00;94891.34;10422573;28;2244;-71
2023/01/15 13:09:54;;;;;;;;;;;;;;;4.77;100.00;94909.34;10425807;28;2103;-73
2023/01/15 13:14:58;;;;;;;;;;;;;;;4.72;100.00;94901.31;10429262;28;2020;-72
2023/01/15 13:20:01;;;;;;;;;;;;;;;4.79;100.00;94922.38;10424184;28;2024;-76
2023/01/15 13:25:04;;;;;;;;;;;5.60;99.90;;;4.74;100.00;94925.81;10431873;28;2154;-72
2023/01/15 13:30:07;;;;;;;;;;;5.70;99.90;;;4.75;100.00;94914.09;10428953;28;2272;-72
2023/01/15 13:35:09;;;;;;;;;;;5.70;99.90;;;4.62;100.00;94943.81;10422852;28;2079;-73
2023/01/15 13:40:12;;;;;;;;;;;5.70;99.90;;;4.58;100.00;94945.38;10423862;28;2323;-74
2023/01/15 13:45:15;;;;;;;;;;;5.60;99.90;;;4.59;100.00;94949.69;10419326;28;2212;-73
2023/01/15 13:50:18;;;;;;;;;;;5.60;99.90;;;4.61;100.00;94964.31;10429826;28;2120;-75
2023/01/15 13:55:21;;;;;;;;;;;5.60;99.90;;;4.60;100.00;94962.72;10421418;28;2127;-73
2023/01/15 14:00:23;;;;;;;;;;;5.60;99.90;;;4.48;100.00;94979.94;10432117;28;2053;-73
2023/01/15 14:05:26;;;;;;;;;;;5.50;99.90;;;4.51;100.00;94990.06;10433073;28;2144;-73
2023/01/15 14:10:29;;;;;;;;;;;5.50;99.90;;;4.56;100.00;95000.75;10421994;28;2219;-74
2023/01/15 14:15:32;;;;;;;;;;;5.50;99.90;;;4.39;100.00;95010.69;10430895;28;2239;-74
2023/01/15 14:20:35;;;;;;;;;;;5.40;99.90;;;4.27;100.00;95019.69;10431144;28;2094;-77
2023/01/15 14:25:38;;;;;;;;;;;5.40;99.90;;;4.33;100.00;95021.31;10439741;28;2009;-80
2023/01/15 14:30:41;;;;;;;;;;;5.30;99.90;;;4.24;100.00;95033.47;10420884;28;2204;-78
2023/01/15 14:35:44;;;;;;;;;;;5.30;99.90;;;4.09;100.00;95041.31;10420068;28;2164;-73
2023/01/15 14:40:46;;;;;;;;;;;5.20;99.90;;;3.82;100.00;95056.41;10423302;28;2087;-73
2023/01/15 14:45:51;;;;;;;;;;;4.70;99.90;;;3.60;100.00;95073.19;10424308;28;2217;-73
2023/01/15 14:50:56;;;;;;;;;;;;;;;3.43;100.00;95091.81;10427007;28;2223;-73
2023/01/15 14:55:58;;;;;;;;;;;4.10;99.90;;;3.24;100.00;95093.13;10423984;28;2178;-73
2023/01/15 15:01:04;;;;;;;;;;;4.10;99.90;;;3.15;100.00;95095.41;10430386;28;2114;-73
2023/01/15 15:06:06;;;;;;;;;;;4.00;99.90;;;3.08;100.00;95101.94;10432764;28;2032;-74
2023/01/15 15:12:17;;;;;;;;;;;4.00;99.90;;;2.90;100.00;95090.53;10425062;28;2086;-73
2023/01/15 15:16:32;;;;;;;;;;;3.80;99.90;;;2.71;100.00;95091.81;10422850;28;2048;-75
2023/01/15 15:21:37;;;;;;;;;;;3.70;99.90;;;2.69;100.00;95086.75;10413616;28;2144;-74
2023/01/15 15:26:40;;;;;;;;;;;3.60;99.90;;;2.73;100.00;95047.25;10429077;28;2104;-72
2023/01/15 15:31:42;;;;;;;;;;;3.60;99.90;;;2.75;100.00;95097.47;10425395;28;2211;-74
2023/01/15 15:36:45;;;;;;;;;;;3.60;99.90;;;2.64;100.00;95102.59;10426191;28;2144;-73
2023/01/15 15:52:29;;;;;;;;;;;3.40;99.90;;;2.67;100.00;95118.03;10424781;28;2204;-74
2023/01/15 15:57:32;;;;;;;;;;;3.50;99.90;;;2.75;100.00;95116.84;10422160;28;2033;-74
2023/01/15 16:02:36;;;;;;;;;;;3.60;99.90;;;2.80;100.00;95113.44;10413324;28;2051;-72
2023/01/15 16:07:38;;;;;;;;;;;3.90;99.90;;;2.91;100.00;95101.94;10406258;28;2120;-74
2023/01/15 16:12:41;;;;;;;;;;;3.80;99.90;;;2.91;100.00;95081.50;10417590;28;2044;-73
2023/01/15 16:17:44;;;;;;;;;;;4.00;99.90;;;2.95;100.00;95092.47;10412980;28;2199;-73
2023/01/15 16:22:46;;;;;;;;;;;4.00;99.90;;;3.07;100.00;95085.22;10414691;28;2041;-74
2023/01/15 16:27:49;;;;;;;;;;;4.10;99.90;;;3.08;100.00;95094.78;10429690;28;2150;-74
2023/01/15 16:32:52;;;;;;;;;;;4.10;99.90;;;3.16;100.00;95091.72;10429747;28;2098;-74
2023/01/15 16:37:54;;;;;;;;;;;4.10;99.90;;;3.20;100.00;95092.84;10434092;28;2030;-75
2023/01/15 16:42:57;;;;;;;;;;;4.20;99.90;;;3.26;100.00;95096.38;10425743;28;2044;-74
2023/01/15 16:48:00;;;;;;;;;;;4.20;99.90;;;3.24;100.00;95083.34;10429122;28;2440;-73
2023/01/15 16:53:02;;;;;;;;;;;4.30;99.90;;;3.34;100.00;95087.19;10426982;28;2007;-73
2023/01/15 16:58:05;;;;;;;;;;;4.30;99.90;;;3.20;100.00;95078.75;10436364;28;2147;-74
2023/01/15 17:03:08;;;;;;;;;;;4.30;99.90;;;3.23;100.00;95081.72;10425672;28;2102;-75
2023/01/15 17:08:10;;;;;;;;;;;4.30;99.90;;;3.28;100.00;95072.22;10431032;28;2009;-73
2023/01/15 17:13:13;;;;;;;;;;;4.30;99.90;;;3.23;100.00;95092.34;10432970;28;2009;-74
2023/01/15 17:18:16;;;;;;;;;;;4.30;99.90;;;3.18;100.00;95099.41;10437960;28;2029;-75
2023/01/15 17:23:18;;;;;;;;;;;4.30;99.90;;;3.13;100.00;95097.53;10427201;28;2061;-75
2023/01/15 17:28:23;;;;;;;;;;;4.20;99.90;;;3.06;100.00;95096.88;10423513;28;2239;-75
2023/01/15 17:33:26;;;;;;;;;;;4.20;99.90;;;2.96;100.00;95099.38;10420713;28;2141;-74
2023/01/15 17:38:28;;;;;;;;;;;4.10;99.90;;;2.96;100.00;95107.34;10425302;28;2142;-74
2023/01/15 17:43:31;;;;;;;;;;;4.00;99.90;;;2.92;100.00;95096.38;10429626;28;2135;-74
2023/01/15 17:48:34;;;;;;;;;;;4.10;99.90;;;2.83;100.00;95102.34;10426764;28;2198;-75
2023/01/15 17:53:36;;;;;;;;;;;4.10;99.90;;;2.78;100.00;95095.09;10426347;28;2058;-74
2023/01/15 18:09:20;;;;;;;;;;;3.80;99.90;;;2.75;100.00;95110.72;10430445;28;2130;-73
2023/01/15 18:14:22;;;;;;;;;;;3.80;99.90;;;2.72;100.00;95101.38;10421830;28;2103;-75
2023/01/15 18:19:28;;;;;;;;;;;3.80;99.90;;;2.64;100.00;95109.75;10425258;28;2201;-75
2023/01/15 18:24:30;;;;;;;;;;;3.80;99.90;;;2.71;100.00;95113.03;10426860;28;2225;-76
2023/01/15 18:29:37;;;;;;;;;;;3.80;99.90;;;2.66;100.00;95103.13;10421196;28;2654;-73
2023/01/15 18:34:40;;;;;;;;;;;3.80;99.90;;;2.61;100.00;95116.34;10417819;28;2239;-75
2023/01/15 18:39:42;;;;;;;;;;;3.70;99.90;;;2.53;100.00;95103.44;10425503;28;2108;-74
2023/01/15 18:50:06;;;;;;;;;;;3.60;99.90;;;2.42;100.00;95096.38;10428160;28;2041;-73
2023/01/15 18:55:09;;;;;;;;;;;3.60;99.90;;;2.40;100.00;95099.25;10441844;28;1969;-75
2023/01/15 19:00:11;;;;;;;;;;;3.50;99.90;;;2.31;100.00;95110.50;10445101;28;1771;-74
2023/01/15 19:05:15;;;;;;;;;;;3.50;99.90;;;2.29;100.00;95112.56;10432325;28;1856;-76
2023/01/15 19:10:18;;;;;;;;;;;3.50;99.90;;;2.15;100.00;95096.13;10443394;28;1786;-74
2023/01/15 19:20:42;;;;;;;;;;;;;;;2.03;100.00;95098.84;10436599;28;1715;-76
2023/01/15 19:25:45;;;;;;;;;;;3.30;99.90;;;1.95;100.00;95091.25;10440095;28;2131;-73
2023/01/15 19:31:34;;;;;;;;;;;;;;;1.75;100.00;95082.94;10444066;28;1740;-73
2023/01/15 19:36:14;;;;;;;;;;;;;;;1.74;100.00;95073.38;10434928;28;1979;-78
2023/01/15 19:57:21;;;;;;;;;;;;;;;1.47;100.00;95036.81;10435943;28;2091;-74
2023/01/15 20:02:24;;;;;;;;;;;;;;;1.48;100.00;95038.44;10437323;28;1812;-73
2023/01/15 20:07:27;;;;;;;;;;;;;;;1.42;100.00;95028.78;10435509;28;1804;-73
2023/01/15 20:17:52;;;;;;;;;;;;;;;1.47;100.00;95022.78;10432777;28;1922;-73
2023/01/15 20:22:56;;;;;;;;;;;;;;;1.40;100.00;95016.78;10433457;28;1722;-74
2023/01/15 20:28:03;;;;;;;;;;;;;;;1.35;100.00;94999.78;10439088;28;1849;-74
2023/01/15 20:33:07;;;;;;;;;;;;;;;1.42;100.00;95012.88;10446112;28;1746;-75
2023/01/15 20:38:11;;;;;;;;;;;;;;;1.41;100.00;95013.13;10444757;28;1906;-74
2023/01/15 20:53:57;;;;;;;;;;;;;;;1.54;100.00;94975.78;10440050;28;1969;-74
2023/01/15 20:59:01;;;;;;;;;;;;;;;1.53;100.00;94976.81;10436373;28;1976;-72
2023/01/15 21:04:05;;;;;;;;;;;;;;;1.50;100.00;94977.28;10424586;28;2011;-74
2023/01/15 21:09:08;;;;;;;;;;;;;;;1.56;100.00;94974.47;10431427;28;2091;-74
2023/01/15 21:14:14;;;;;;;;;;;;;;;1.50;100.00;94967.47;10425070;28;2178;-75
2023/01/15 21:19:18;;;;;;;;;;;;;;;1.51;100.00;94969.09;10424862;28;1965;-77
2023/01/15 21:24:21;;;;;;;;;;;;;;;1.42;100.00;94949.31;10432369;28;1954;-78
2023/01/15 21:29:24;;;;;;;;;;;;;;;1.38;100.00;94958.78;10431322;28;1937;-78
2023/01/15 21:34:27;;;;;;;;;;;;;;;1.41;100.00;94949.56;10429955;28;2185;-78
2023/01/15 21:39:31;;;;;;;;;;;;;;;1.33;100.00;94942.78;10442805;28;1984;-78
2023/01/15 21:44:37;;;;;;;;;;;;;;;1.29;100.00;94934.53;10426253;28;1973;-76
2023/01/15 21:49:40;;;;;;;;;;;;;;;1.31;100.00;94939.56;10438254;28;2000;-77
2023/01/15 21:54:43;;;;;;;;;;;;;;;1.31;100.00;94923.69;10435129;28;1992;-78
2023/01/15 21:59:47;;;;;;;;;;;;;;;1.23;100.00;94913.47;10430952;28;1976;-78
2023/01/15 22:04:50;;;;;;;;;;;;;;;1.20;100.00;94901.50;10433338;28;2010;-78
2023/01/15 22:09:53;;;;;;;;;;;;;;;1.21;100.00;94897.00;10434729;28;2262;-78
2023/01/15 22:14:56;;;;;;;;;;;;;;;1.16;100.00;94894.28;10437069;28;2353;-78
2023/01/15 22:19:59;;;;;;;;;;;;;;;1.28;100.00;94890.56;10422345;28;2092;-76
2023/01/15 22:25:04;;;;;;;;;;;;;;;1.32;100.00;94885.56;10425852;28;2126;-77
2023/01/15 22:30:07;;;;;;;;;;;;;;;1.34;100.00;94862.31;10423018;28;1989;-77
2023/01/15 22:35:10;;;;;;;;;;;;;;;1.31;100.00;94860.13;10417618;28;2106;-78
2023/01/15 22:40:13;;;;;;;;;;;;;;;1.30;100.00;94856.69;10424561;28;2110;-78
2023/01/15 22:45:16;;;;;;;;;;;;;;;1.30;100.00;94847.94;10419407;28;1980;-76
2023/01/15 22:50:22;;;;;;;;;;;;;;;1.25;100.00;94845.22;10419607;28;2011;-77
2023/01/15 22:55:25;;;;;;;;;;;;;;;1.25;100.00;94832.78;10427929;28;2090;-77
2023/01/15 23:00:29;;;;;;;;;;;;;;;1.18;100.00;94823.38;10434103;28;2170;-78
2023/01/15 23:05:32;;;;;;;;;;;;;;;1.17;100.00;94819.13;10426026;28;1964;-77
2023/01/15 23:10:36;;;;;;;;;;;;;;;1.18;100.00;94799.56;10431384;28;2044;-75
2023/01/15 23:15:39;;;;;;;;;;;;;;;1.30;100.00;94787.84;10424857;28;2000;-78
2023/01/15 23:20:42;;;;;;;;;;;;;;;1.29;100.00;94777.50;10430140;28;1995;-75
2023/01/15 23:25:45;;;;;;;;;;;;;;;1.34;100.00;94769.66;10431737;28;2087;-78
2023/01/15 23:30:48;;;;;;;;;;;;;;;1.30;100.00;94765.88;10423502;28;1961;-78
2023/01/15 23:35:52;;;;;;;;;;;;;;;1.27;100.00;94755.75;10425845;28;2103;-78
2023/01/15 23:40:55;;;;;;;;;;;;;;;1.40;100.00;94739.56;10426660;28;2024;-78
2023/01/15 23:51:19;;;;;;;;;;;;;;;1.42;100.00;94718.94;10422251;28;1984;-78
2023/01/15 23:56:22;;;;;;;;;;;;;;;1.45;100.00;94704.41;10427487;28;2040;-77
